Time;durP1;ratioP1;P1;durP2;ratioP2;P2;SDS_P1;SDS_P2;PMS_P1;PMS_P2;Temp;Humidity;BMP_temperature;BMP_pressure;BME280_temperature;BME280_humidity;BME280_pressure;Samples;Min_cycle;Max_cycle;Signal;HPM_P1;HPM_P2
2024/04/08 00:00:39;;;;;;;10.30;8.50;;;;;;;9.46;100.00;101272.36;107828;1257;75348;-77
2024/04/08 00:03:06;;;;;;;10.90;7.30;;;;;;;8.98;100.00;101273.35;107835;1260;71211;-76
2024/04/08 00:05:34;;;;;;;8.80;6.40;;;;;;;8.78;100.00;101274.96;107835;1259;71175;-77
2024/04/08 00:08:04;;;;;;;7.80;5.70;;;;;;;8.98;100.00;101268.21;107742;1262;62011;-77
2024/04/08 00:10:30;;;;;;;7.80;4.90;;;;;;;9.21;100.00;101262.93;107848;1260;62105;-77
2024/04/08 00:12:57;;;;;;;6.40;4.60;;;;;;;9.24;100.00;101258.34;107744;1259;75311;-77
2024/04/08 00:15:24;;;;;;;5.80;4.30;;;;;;;9.19;100.00;101257.06;107716;1259;72835;-77
2024/04/08 00:17:51;;;;;;;6.20;5.30;;;;;;;8.99;100.00;101255.67;107676;1262;72569;-77
2024/04/08 00:20:19;;;;;;;7.20;4.90;;;;;;;8.58;100.00;101260.45;107790;1260;62002;-77
2024/04/08 00:22:53;;;;;;;6.40;4.80;;;;;;;8.47;100.00;101262.44;107746;1262;61909;-76
2024/04/08 00:25:20;;;;;;;6.70;4.60;;;;;;;8.44;100.00;101256.30;107784;1258;75163;-76
2024/04/08 00:27:47;;;;;;;6.50;4.60;;;;;;;8.50;100.00;101255.27;107699;1260;72779;-77
2024/04/08 00:30:13;;;;;;;5.90;4.70;;;;;;;8.47;100.00;101252.04;107755;1260;71469;-78
2024/04/08 00:32:40;;;;;;;6.80;5.20;;;;;;;8.68;100.00;101247.06;107735;1260;62732;-77
2024/04/08 00:35:08;;;;;;;7.80;4.50;;;;;;;9.01;100.00;101237.17;107669;1260;62020;-78
2024/04/08 00:37:34;;;;;;;6.20;4.70;;;;;;;9.05;100.00;101238.15;107707;1258;75371;-78
2024/04/08 00:40:02;;;;;;;6.10;4.40;;;;;;;8.99;100.00;101238.94;107715;1257;70772;-78
2024/04/08 00:42:29;;;;;;;7.80;5.50;;;;;;;8.97;100.00;101242.73;107790;1260;72571;-78
2024/04/08 00:44:55;;;;;;;6.10;4.90;;;;;;;9.02;100.00;101244.02;107737;1260;62016;-79
2024/04/08 00:47:22;;;;;;;7.50;5.60;;;;;;;9.00;100.00;101248.72;107752;1262;60898;-77
2024/04/08 00:49:49;;;;;;;6.60;5.30;;;;;;;9.01;100.00;101248.42;107775;1260;75283;-76
2024/04/08 00:52:16;;;;;;;6.60;5.30;;;;;;;9.03;100.00;101248.15;107762;1260;73260;-77
2024/04/08 00:54:43;;;;;;;7.00;6.00;;;;;;;9.04;100.00;101255.99;107638;1260;70914;-78
2024/04/08 00:57:12;;;;;;;6.40;5.40;;;;;;;9.03;100.00;101258.92;107770;1261;61919;-79
2024/04/08 00:59:39;;;;;;;8.30;6.20;;;;;;;9.04;100.00;101258.53;107813;1261;62031;-77
2024/04/08 01:02:06;;;;;;;7.50;5.70;;;;;;;9.06;100.00;101256.01;107690;1258;74025;-77
2024/04/08 01:04:33;;;;;;;8.00;6.00;;;;;;;9.07;100.00;101256.67;107655;1263;72458;-77
2024/04/08 01:07:01;;;;;;;8.40;6.10;;;;;;;9.08;100.00;101252.33;107556;1260;72717;-78
2024/04/08 01:09:32;;;;;;;9.70;5.90;;;;;;;9.09;100.00;101253.31;107789;1258;61931;-78
2024/04/08 01:12:09;;;;;;;7.20;6.10;;;;;;;9.10;100.00;101258.55;107561;1258;61891;-77
2024/04/08 01:14:39;;;;;;;8.70;5.80;;;;;;;9.12;100.00;101256.52;107813;1260;75459;-77
2024/04/08 01:17:16;;;;;;;7.40;5.90;;;;;;;9.13;100.00;101255.39;107574;1260;73450;-77
2024/04/08 01:19:48;;;;;;;7.20;5.70;;;;;;;9.14;100.00;101254.55;107707;1261;71276;-79
2024/04/08 01:22:33;;;;;;;7.30;5.70;;;;;;;9.15;100.00;101255.16;107682;1260;62546;-76
2024/04/08 01:25:04;;;;;;;7.60;5.50;;;;;;;9.16;100.00;101257.16;107897;1262;60332;-77
2024/04/08 01:27:36;;;;;;;8.00;6.00;;;;;;;9.15;100.00;101258.85;107698;1260;75477;-77
2024/04/08 01:30:06;;;;;;;8.50;6.00;;;;;;;9.14;100.00;101259.98;107848;1257;72794;-78
2024/04/08 01:32:40;;;;;;;7.50;5.50;;;;;;;9.12;100.00;101255.57;107842;1257;72007;-78
2024/04/08 01:35:11;;;;;;;8.90;5.70;;;;;;;9.11;100.00;101254.81;107899;1261;61922;-77
2024/04/08 01:37:51;;;;;;;8.20;5.90;;;;;;;9.09;100.00;101254.16;107679;1258;61894;-76
2024/04/08 01:40:34;;;;;;;7.80;5.60;;;;;;;9.07;100.00;101256.06;107833;1260;76350;-76
2024/04/08 01:43:17;;;;;;;7.30;5.80;;;;;;;9.04;100.00;101255.79;107659;1260;73043;-77
2024/04/08 01:45:58;;;;;;;8.80;6.10;;;;;;;9.02;100.00;101257.09;107734;1262;71754;-76
2024/04/08 01:48:36;;;;;;;7.40;5.40;;;;;;;8.99;100.00;101251.20;107693;1258;61872;-76
2024/04/08 01:51:11;;;;;;;7.30;5.90;;;;;;;8.92;100.00;101252.58;107718;1263;62679;-77
2024/04/08 01:53:46;;;;;;;8.20;6.20;;;;;;;8.82;100.00;101253.22;107944;1262;74238;-77
2024/04/08 01:56:24;;;;;;;7.20;5.90;;;;;;;8.66;100.00;101255.45;107921;1260;72579;-76
2024/04/08 01:58:57;;;;;;;7.10;5.90;;;;;;;8.23;100.00;101262.92;107921;1257;73488;-76
2024/04/08 02:01:36;;;;;;;8.30;6.10;;;;;;;8.42;100.00;101264.73;107816;1261;62131;-77
2024/04/08 02:04:11;;;;;;;8.50;6.10;;;;;;;8.66;100.00;101265.04;107594;1259;61949;-78
2024/04/08 02:06:48;;;;;;;7.20;5.90;;;;;;;8.69;100.00;101261.48;107734;1263;73469;-77
2024/04/08 02:09:20;;;;;;;6.90;5.30;;;;;;;8.69;100.00;101262.17;107704;1262;72850;-77
2024/04/08 02:11:50;;;;;;;7.10;5.60;;;;;;;8.68;100.00;101264.75;107682;1262;71478;-77
2024/04/08 02:14:22;;;;;;;6.20;5.20;;;;;;;8.67;100.00;101265.05;107717;1260;62133;-76
2024/04/08 02:16:52;;;;;;;7.10;5.50;;;;;;;8.66;100.00;101263.13;107714;1260;61928;-77
2024/04/08 02:19:52;;;;;;;6.90;5.40;;;;;;;8.62;100.00;101262.20;107726;1259;75568;-78
2024/04/08 02:22:19;;;;;;;8.40;6.20;;;;;;;8.58;100.00;101261.84;107627;1261;72584;-78
2024/04/08 02:24:46;;;;;;;8.90;5.70;;;;;;;8.59;100.00;101260.20;107591;1261;71124;-77
2024/04/08 02:27:13;;;;;;;7.20;6.40;;;;;;;8.60;100.00;101264.02;107513;1263;61973;-77
2024/04/08 02:29:40;;;;;;;6.70;5.60;;;;;;;8.62;100.00;101264.86;107639;1261;61207;-80
2024/04/08 02:32:07;;;;;;;7.20;5.90;;;;;;;8.62;100.00;101267.52;107676;1261;73144;-77
2024/04/08 02:34:33;;;;;;;6.60;5.80;;;;;;;8.61;100.00;101265.58;107640;1263;72510;-79
2024/04/08 02:37:00;;;;;;;7.80;6.80;;;;;;;8.61;100.00;101267.08;107641;1260;71743;-76
2024/04/08 02:39:27;;;;;;;9.30;7.60;;;;;;;8.62;100.00;101264.15;107660;1260;61892;-78
2024/04/08 02:41:54;;;;;;;8.80;7.30;;;;;;;8.58;100.00;101259.59;107666;1260;61965;-76
2024/04/08 02:44:21;;;;;;;9.70;7.30;;;;;;;8.47;100.00;101260.94;107712;1260;75538;-77
2024/04/08 02:46:48;;;;;;;9.50;7.40;;;;;;;8.40;100.00;101260.45;107739;1260;71345;-77
2024/04/08 02:49:14;;;;;;;8.80;6.70;;;;;;;8.35;100.00;101260.44;107691;1260;72625;-77
2024/04/08 02:51:41;;;;;;;8.70;7.20;;;;;;;8.32;100.00;101264.08;107649;1260;62345;-77
2024/04/08 02:54:08;;;;;;;8.90;7.70;;;;;;;8.23;100.00;101269.60;107687;1263;62130;-76
2024/04/08 02:56:35;;;;;;;9.50;7.70;;;;;;;8.17;100.00;101265.70;107624;1261;75515;-76
2024/04/08 02:59:02;;;;;;;9.40;7.80;;;;;;;8.13;100.00;101266.53;107667;1260;75151;-76
2024/04/08 03:01:30;;;;;;;11.80;8.40;;;;;;;8.07;100.00;101265.20;107652;1263;72663;-77
2024/04/08 03:03:57;;;;;;;9.30;7.80;;;;;;;8.00;100.00;101265.53;107599;1261;64277;-77
2024/04/08 03:06:23;;;;;;;10.10;7.80;;;;;;;7.96;100.00;101266.52;107764;1260;61924;-76
2024/04/08 03:08:51;;;;;;;9.00;7.20;;;;;;;7.93;100.00;101273.34;107728;1261;75374;-74
2024/04/08 03:11:18;;;;;;;9.40;7.50;;;;;;;7.91;100.00;101273.83;107706;1263;72807;-76
2024/04/08 03:13:45;;;;;;;8.50;6.90;;;;;;;7.93;100.00;101269.79;107696;1261;72680;-76
2024/04/08 03:16:12;;;;;;;7.70;6.80;;;;;;;7.96;100.00;101270.56;107682;1261;61900;-78
2024/04/08 03:18:39;;;;;;;8.80;6.20;;;;;;;7.96;100.00;101277.07;107634;1260;61864;-77
2024/04/08 03:21:06;;;;;;;8.20;6.80;;;;;;;8.00;100.00;101275.44;107639;1261;75516;-77
2024/04/08 03:23:33;;;;;;;7.70;6.80;;;;;;;8.07;100.00;101272.59;107654;1260;72838;-80
2024/04/08 03:26:06;;;;;;;6.90;6.20;;;;;;;8.08;100.00;101276.00;107648;1261;72735;-77
2024/04/08 03:28:33;;;;;;;7.00;6.30;;;;;;;8.01;100.00;101278.48;107704;1260;62129;-77
2024/04/08 03:31:05;;;;;;;8.20;6.70;;;;;;;7.96;100.00;101279.20;107730;1260;62258;-77
2024/04/08 03:33:33;;;;;;;;;;;;;;;7.96;100.00;101275.02;107741;1260;74418;-77
2024/04/08 03:36:00;;;;;;;6.90;6.20;;;;;;;7.92;100.00;101272.13;107732;1260;72637;-77
2024/04/08 03:38:27;;;;;;;7.90;7.10;;;;;;;7.86;100.00;101274.27;107753;1260;72538;-77
2024/04/08 03:40:59;;;;;;;8.80;7.30;;;;;;;7.76;100.00;101271.63;107675;1260;61920;-77
2024/04/08 03:43:26;;;;;;;;;;;;;;;7.27;100.00;101275.20;107708;1259;61881;-77
2024/04/08 03:45:53;;;;;;;8.20;7.20;;;;;;;7.16;100.00;101280.08;107766;1263;75284;-80
2024/04/08 03:48:22;;;;;;;8.10;7.20;;;;;;;7.10;100.00;101280.36;107718;1260;72775;-77
2024/04/08 03:50:48;;;;;;;8.20;6.90;;;;;;;7.07;100.00;101287.13;107730;1259;70859;-78
2024/04/08 03:53:16;;;;;;;8.40;7.60;;;;;;;7.13;100.00;101288.08;107678;1260;62014;-76
2024/04/08 03:55:43;;;;;;;9.40;7.70;;;;;;;7.18;100.00;101287.63;107674;1260;61343;-77
2024/04/08 03:58:10;;;;;;;9.10;7.70;;;;;;;7.41;100.00;101291.56;107640;1261;75977;-76
2024/04/08 04:00:37;;;;;;;8.60;7.60;;;;;;;7.60;100.00;101292.33;107666;1262;71715;-78
2024/04/08 04:03:03;;;;;;;9.70;7.80;;;;;;;7.39;100.00;101297.51;107622;1260;73300;-76
2024/04/08 04:05:33;;;;;;;9.90;7.80;;;;;;;7.41;100.00;101295.86;107673;1260;62184;-77
2024/04/08 04:08:00;;;;;;;9.70;7.70;;;;;;;7.53;100.00;101301.23;107695;1260;59983;-79
2024/04/08 04:10:27;;;;;;;8.40;7.40;;;;;;;7.66;100.00;101298.30;107634;1260;75354;-76
2024/04/08 04:12:54;;;;;;;10.90;8.20;;;;;;;8.22;100.00;101296.59;107647;1261;72736;-75
2024/04/08 04:15:20;;;;;;;8.90;7.50;;;;;;;8.19;100.00;101294.37;107677;1262;72321;-77
2024/04/08 04:17:47;;;;;;;8.60;7.50;;;;;;;8.15;100.00;101296.45;107666;1260;61743;-78
2024/04/08 04:20:15;;;;;;;8.40;7.50;;;;;;;8.21;100.00;101295.99;107598;1264;61801;-76
2024/04/08 04:22:42;;;;;;;9.30;7.80;;;;;;;8.33;100.00;101299.13;107716;1263;74108;-75
2024/04/08 04:25:09;;;;;;;9.80;8.30;;;;;;;8.48;100.00;101306.67;107589;1264;72699;-77
2024/04/08 04:27:36;;;;;;;10.60;8.60;;;;;;;8.64;100.00;101307.59;107615;1260;72429;-77
2024/04/08 04:30:03;;;;;;;8.90;7.70;;;;;;;8.81;100.00;101307.73;107715;1259;62020;-76
2024/04/08 04:32:30;;;;;;;10.00;8.10;;;;;;;9.08;100.00;101312.38;107731;1259;61931;-77
2024/04/08 04:34:57;;;;;;;10.70;8.50;;;;;;;9.19;100.00;101314.35;107686;1260;75270;-76
2024/04/08 04:37:24;;;;;;;10.10;8.00;;;;;;;9.37;100.00;101311.29;107612;1260;71383;-77
2024/04/08 04:39:50;;;;;;;10.40;8.40;;;;;;;9.40;100.00;101316.43;107707;1259;72482;-79
2024/04/08 04:42:17;;;;;;;10.80;8.10;;;;;;;9.48;100.00;101315.44;107681;1260;61948;-77
2024/04/08 04:44:46;;;;;;;9.50;7.80;;;;;;;9.59;100.00;101314.27;107632;1259;62015;-78
2024/04/08 04:47:13;;;;;;;11.70;8.10;;;;;;;9.78;100.00;101310.73;107652;1259;74064;-77
2024/04/08 04:49:40;;;;;;;9.10;8.00;;;;;;;10.19;100.00;101309.10;107642;1260;72659;-77
2024/04/08 04:52:06;;;;;;;10.20;8.40;;;;;;;10.13;100.00;101312.71;107727;1261;72676;-77
2024/04/08 04:54:33;;;;;;;10.20;8.50;;;;;;;10.27;100.00;101317.66;107660;1260;62124;-76
2024/04/08 04:57:00;;;;;;;8.40;7.40;;;;;;;10.44;100.00;101320.75;107708;1259;61902;-76
2024/04/08 04:59:27;;;;;;;10.30;7.90;;;;;;;10.59;100.00;101326.49;107728;1261;75264;-75
2024/04/08 05:01:54;;;;;;;11.00;7.80;;;;;;;10.72;100.00;101328.06;107639;1260;72705;-78
2024/04/08 05:04:21;;;;;;;9.50;7.30;;;;;;;10.94;100.00;101322.91;107629;1259;72683;-77
2024/04/08 05:06:47;;;;;;;10.40;8.30;;;;;;;11.02;100.00;101324.21;107671;1260;61858;-78
2024/04/08 05:09:14;;;;;;;9.90;7.40;;;;;;;11.18;100.00;101329.09;107723;1260;61929;-76
2024/04/08 05:11:41;;;;;;;10.80;8.00;;;;;;;11.32;100.00;101323.64;107689;1259;74262;-76
2024/04/08 05:14:08;;;;;;;11.10;8.00;;;;;;;11.40;100.00;101323.19;107699;1260;72504;-76
2024/04/08 05:16:35;;;;;;;10.20;7.60;;;;;;;11.54;100.00;101315.33;107708;1260;72358;-78
2024/04/08 05:19:01;;;;;;;9.70;7.10;;;;;;;11.67;100.00;101306.48;107711;1260;61795;-77
2024/04/08 05:21:29;;;;;;;9.90;7.30;;;;;;;11.80;100.00;101299.11;107768;1260;62137;-76
2024/04/08 05:23:55;;;;;;;10.40;6.90;;;;;;;11.92;100.00;101299.15;107693;1260;74037;-77
2024/04/08 05:26:22;;;;;;;8.80;7.00;;;;;;;12.11;100.00;101306.88;107681;1262;71652;-77
2024/04/08 05:28:49;;;;;;;11.10;7.00;;;;;;;12.68;100.00;101304.27;107722;1260;72491;-77
2024/04/08 05:31:16;;;;;;;9.80;7.10;;;;;;;12.91;100.00;101299.23;107719;1261;62047;-77
2024/04/08 05:33:43;;;;;;;9.90;6.60;;;;;;;12.99;100.00;101298.09;107722;1260;61936;-77
2024/04/08 05:36:10;;;;;;;9.50;6.30;;;;;;;13.06;100.00;101291.97;107728;1260;74277;-78
2024/04/08 05:38:37;;;;;;;9.30;6.80;;;;;;;13.22;100.00;101291.38;107685;1260;73127;-79
2024/04/08 05:41:04;;;;;;;9.50;6.50;;;;;;;13.38;100.00;101288.66;107565;1264;72805;-77
2024/04/08 05:43:33;;;;;;;10.70;6.70;;;;;;;13.51;100.00;101289.13;107709;1260;62033;-78
2024/04/08 05:46:00;;;;;;;10.80;6.50;;;;;;;13.61;100.00;101285.82;107726;1260;62005;-78
2024/04/08 05:48:27;;;;;;;9.10;5.80;;;;;;;13.75;100.00;101290.13;107712;1260;75494;-78
2024/04/08 05:50:54;;;;;;;8.30;5.70;;;;;;;13.85;100.00;101293.68;107724;1260;72728;-77
2024/04/08 05:53:21;;;;;;;8.00;5.70;;;;;;;13.98;100.00;101292.45;107728;1259;72723;-77
2024/04/08 05:55:48;;;;;;;7.60;5.10;;;;;;;14.10;100.00;101289.39;107710;1260;61995;-76
2024/04/08 05:58:16;;;;;;;8.70;5.40;;;;;;;14.23;100.00;101280.58;107697;1259;61895;-77
2024/04/08 06:00:43;;;;;;;8.60;5.40;;;;;;;14.36;100.00;101280.35;107804;1260;75485;-77
2024/04/08 06:03:10;;;;;;;8.30;5.40;;;;;;;14.44;100.00;101274.24;107761;1259;71698;-76
2024/04/08 06:05:40;;;;;;;8.20;5.00;;;;;;;14.49;100.00;101274.36;107742;1259;72489;-76
2024/04/08 06:08:07;;;;;;;7.90;5.30;;;;;;;14.57;100.00;101276.94;107720;1260;62374;-76
2024/04/08 06:10:41;;;;;;;8.70;5.80;;;;;;;14.64;100.00;101274.70;107642;1259;61935;-76
2024/04/08 06:13:09;;;;;;;9.00;5.30;;;;;;;14.71;100.00;101272.87;107592;1259;74258;-78
2024/04/08 06:15:36;;;;;;;9.40;5.70;;;;;;;14.71;100.00;101267.92;107656;1259;73292;-77
2024/04/08 06:18:03;;;;;;;8.10;5.60;;;;;;;14.63;100.00;101265.50;107559;1259;72578;-77
2024/04/08 06:20:30;;;;;;;8.30;5.40;;;;;;;14.56;100.00;101272.58;107620;1259;62018;-77
2024/04/08 06:23:00;;;;;;;9.40;5.70;;;;;;;14.57;100.00;101275.59;107567;1259;61951;-78
2024/04/08 06:25:27;;;;;;;8.60;5.30;;;;;;;14.60;100.00;101278.45;107635;1260;75409;-75
2024/04/08 06:27:58;;;;;;;10.00;5.70;;;;;;;14.63;100.00;101276.14;107583;1259;70982;-77
2024/04/08 06:30:25;;;;;;;8.60;5.70;;;;;;;14.66;100.00;101280.61;107639;1260;72648;-77
2024/04/08 06:32:52;;;;;;;9.90;6.00;;;;;;;14.72;100.00;101278.25;107587;1260;62074;-77
2024/04/08 06:35:22;;;;;;;9.50;5.70;;;;;;;14.83;100.00;101283.27;107624;1260;60670;-78
2024/04/08 06:38:13;;;;;;;9.50;5.70;;;;;;;14.96;100.00;101281.83;103241;1259;20003041;-77
2024/04/08 06:40:41;;;;;;;8.40;4.90;;;;;;;15.11;100.00;101280.96;100134;1260;10001810;-77
2024/04/08 06:43:07;;;;;;;8.20;4.90;;;;;;;15.22;100.00;101278.60;107543;1259;62009;-77
2024/04/08 06:45:35;;;;;;;7.80;4.90;;;;;;;15.37;100.00;101275.35;107491;1260;62033;-77
2024/04/08 06:48:02;;;;;;;7.20;5.00;;;;;;;15.52;100.00;101275.48;107409;1259;63509;-76
2024/04/08 06:50:29;;;;;;;7.50;4.40;;;;;;;15.67;100.00;101273.98;107426;1259;72760;-77
2024/04/08 06:52:56;;;;;;;7.50;4.30;;;;;;;15.81;100.00;101276.64;107442;1260;61952;-78
2024/04/08 06:55:24;;;;;;;6.50;4.30;;;;;;;15.98;100.00;101272.80;107497;1260;61861;-77
2024/04/08 06:57:51;;;;;;;7.10;4.40;;;;;;;16.13;99.73;101274.78;108063;1259;74297;-78
2024/04/08 07:00:19;;;;;;;7.00;4.60;;;;;;;16.27;98.28;101270.14;107432;1261;347089;-77
2024/04/08 07:02:46;;;;;;;10.80;4.50;;;;;;;16.41;96.40;101271.85;107572;1260;72762;-77
2024/04/08 07:05:13;;;;;;;7.70;4.20;;;;;;;16.54;95.05;101271.08;107615;1260;61987;-78
2024/04/08 07:07:40;;;;;;;8.10;4.30;;;;;;;16.68;93.97;101271.90;107632;1260;62048;-77
2024/04/08 07:10:07;;;;;;;7.90;3.90;;;;;;;16.82;92.42;101267.19;107502;1259;76509;-76
2024/04/08 07:12:34;;;;;;;7.00;4.00;;;;;;;16.95;90.18;101268.33;107471;1260;73206;-77
2024/04/08 07:15:02;;;;;;;7.40;3.80;;;;;;;17.07;88.42;101268.17;107469;1259;71645;-76
2024/04/08 07:17:29;;;;;;;7.10;3.80;;;;;;;17.20;86.69;101267.69;107492;1259;61987;-77
2024/04/08 07:19:57;;;;;;;8.10;3.60;;;;;;;17.34;85.21;101267.83;107607;1259;61938;-77
2024/04/08 07:22:24;;;;;;;6.90;4.20;;;;;;;17.47;84.10;101266.51;107531;1263;75552;-77
2024/04/08 07:24:50;;;;;;;6.40;3.50;;;;;;;17.60;82.23;101263.29;107531;1260;72872;-77
2024/04/08 07:27:17;;;;;;;6.50;3.40;;;;;;;17.72;79.94;101256.80;107507;1260;72622;-77
2024/04/08 07:29:44;;;;;;;7.90;3.40;;;;;;;17.79;77.75;101257.16;107344;1260;62048;-76
2024/04/08 07:32:11;;;;;;;7.90;3.70;;;;;;;17.85;77.07;101256.73;107512;1260;62003;-76
2024/04/08 07:34:38;;;;;;;8.00;3.30;;;;;;;17.96;76.57;101258.60;107430;1259;74411;-76
2024/04/08 07:37:05;;;;;;;6.10;3.30;;;;;;;18.10;75.32;101257.83;107438;1260;72937;-77
2024/04/08 07:39:32;;;;;;;6.30;3.30;;;;;;;18.20;73.08;101254.83;107561;1258;72916;-77
2024/04/08 07:42:05;;;;;;;6.90;3.30;;;;;;;18.28;72.04;101248.55;107504;1260;61898;-77
2024/04/08 07:44:34;;;;;;;6.90;3.20;;;;;;;18.35;70.88;101242.33;107637;1259;61910;-77
2024/04/08 07:47:36;;;;;;;6.80;3.40;;;;;;;18.49;70.66;101244.35;107512;1259;76504;-77
2024/04/08 07:50:05;;;;;;;6.00;3.30;;;;;;;18.68;69.82;101240.55;107480;1259;71526;-76
2024/04/08 07:52:37;;;;;;;6.60;2.90;;;;;;;18.84;69.25;101241.73;107633;1259;72788;-77
2024/04/08 07:55:04;;;;;;;7.90;3.10;;;;;;;19.00;68.14;101241.69;107648;1260;62037;-77
2024/04/08 07:57:32;;;;;;;6.20;3.00;;;;;;;19.15;67.13;101241.58;107599;1260;61928;-77
2024/04/08 07:59:59;;;;;;;6.60;3.00;;;;;;;19.30;66.16;101242.14;107543;1261;75552;-78
2024/04/08 08:02:28;;;;;;;7.10;3.20;;;;;;;19.44;65.62;101240.75;107524;1260;72908;-77
2024/04/08 08:04:54;;;;;;;5.80;2.90;;;;;;;19.60;65.07;101240.28;107422;1259;72777;-76
2024/04/08 08:07:21;;;;;;;5.90;3.00;;;;;;;19.74;63.35;101233.52;107485;1259;62091;-77
2024/04/08 08:09:49;;;;;;;5.70;2.60;;;;;;;19.85;62.00;101231.56;107569;1260;62445;-77
2024/04/08 08:12:17;;;;;;;4.20;2.50;;;;;;;19.99;61.64;101231.86;107551;1260;74439;-77
2024/04/08 08:14:46;;;;;;;7.00;2.70;;;;;;;20.13;60.21;101229.45;107610;1259;73274;-77
2024/04/08 08:17:13;;;;;;;4.90;2.20;;;;;;;20.27;59.28;101229.13;107595;1260;72770;-78
2024/04/08 08:19:40;;;;;;;4.40;2.10;;;;;;;20.42;58.34;101224.23;107653;1260;62050;-78
2024/04/08 08:22:07;;;;;;;5.10;2.60;;;;;;;20.56;57.08;101226.49;107670;1260;60352;-78
2024/04/08 08:24:35;;;;;;;5.50;2.40;;;;;;;20.70;55.87;101228.28;107643;1259;75512;-78
2024/04/08 08:27:02;;;;;;;5.20;2.40;;;;;;;20.58;54.12;101231.00;107748;1260;72898;-78
2024/04/08 08:29:29;;;;;;;4.60;2.30;;;;;;;20.30;54.60;101233.46;107757;1259;72760;-77
2024/04/08 08:31:56;;;;;;;5.10;2.00;;;;;;;20.33;55.15;101233.39;107652;1259;62021;-81
2024/04/08 08:34:27;;;;;;;4.90;2.20;;;;;;;20.42;54.24;101227.27;107666;1260;61907;-78
2024/04/08 08:36:54;;;;;;;5.60;2.30;;;;;;;20.55;54.10;101228.84;107689;1259;75506;-79
2024/04/08 08:39:21;;;;;;;4.70;2.10;;;;;;;20.69;53.93;101230.42;107749;1259;73004;-79
2024/04/08 08:41:51;;;;;;;4.70;1.90;;;;;;;20.84;52.99;101227.39;107666;1262;71758;-79
2024/04/08 08:44:20;;;;;;;5.40;2.00;;;;;;;20.99;51.68;101224.73;107659;1260;61199;-78
2024/04/08 08:46:48;;;;;;;6.10;2.30;;;;;;;21.00;49.79;101221.13;107710;1259;61919;-77
2024/04/08 08:49:15;;;;;;;5.70;2.10;;;;;;;21.01;49.77;101217.79;107704;1259;75311;-78
2024/04/08 08:51:42;;;;;;;5.40;2.10;;;;;;;21.08;49.58;101217.34;107638;1260;72905;-78
2024/04/08 08:54:09;;;;;;;5.00;2.20;;;;;;;21.18;48.78;101207.55;107640;1259;71400;-77
2024/04/08 08:56:36;;;;;;;5.70;2.30;;;;;;;21.31;48.83;101206.94;107562;1259;62102;-79
2024/04/08 08:59:03;;;;;;;4.80;2.20;;;;;;;21.61;48.72;101204.18;107586;1259;61886;-77
2024/04/08 09:01:30;;;;;;;5.40;2.20;;;;;;;21.76;47.86;101201.80;107663;1259;75600;-77
2024/04/08 09:03:57;;;;;;;4.60;2.00;;;;;;;21.76;47.56;101199.33;107626;1259;72866;-77
2024/04/08 09:06:26;;;;;;;5.90;2.20;;;;;;;21.85;46.57;101197.46;107667;1259;71556;-78
2024/04/08 09:08:53;;;;;;;6.50;2.30;;;;;;;21.92;46.46;101194.14;107712;1260;62053;-77
2024/04/08 09:11:19;;;;;;;4.70;1.80;;;;;;;22.40;45.68;101187.72;107819;1259;62014;-77
2024/04/08 09:13:49;;;;;;;5.30;2.20;;;;;;;22.66;45.05;101183.88;107779;1259;75235;-78
2024/04/08 09:16:22;;;;;;;8.20;2.80;;;;;;;22.47;44.86;101178.40;107798;1260;72779;-77
2024/04/08 09:18:50;;;;;;;6.10;2.30;;;;;;;22.49;44.95;101179.80;107756;1260;72925;-79
2024/04/08 09:21:17;;;;;;;4.70;2.10;;;;;;;22.56;43.21;101175.98;107734;1259;61915;-78
2024/04/08 09:23:46;;;;;;;3.80;1.80;;;;;;;22.59;43.55;101175.72;107575;1259;61936;-79
2024/04/08 09:26:13;;;;;;;5.50;2.10;;;;;;;22.66;42.79;101177.84;107665;1260;75615;-79
2024/04/08 09:28:39;;;;;;;4.40;1.80;;;;;;;22.71;42.22;101175.99;107723;1262;71459;-78
2024/04/08 09:31:07;;;;;;;5.10;1.40;;;;;;;22.69;41.34;101176.96;107690;1258;72872;-78
2024/04/08 09:33:34;;;;;;;4.90;2.10;;;;;;;22.69;42.04;101172.06;107678;1259;62094;-79
2024/04/08 09:36:01;;;;;;;5.70;2.20;;;;;;;22.80;41.83;101168.67;107648;1260;62066;-78
2024/04/08 09:38:28;;;;;;;6.30;2.30;;;;;;;22.90;40.16;101164.00;107750;1259;75228;-80
2024/04/08 09:40:54;;;;;;;6.50;2.00;;;;;;;22.97;39.44;101167.55;107593;1260;72871;-79
2024/04/08 09:43:21;;;;;;;5.00;1.80;;;;;;;23.04;39.07;101164.88;107586;1260;71445;-78
2024/04/08 09:45:48;;;;;;;4.10;1.60;;;;;;;23.12;38.72;101158.60;107765;1260;61226;-78
2024/04/08 09:48:15;;;;;;;5.50;2.00;;;;;;;23.19;38.23;101162.31;107577;1260;61921;-78
2024/04/08 09:50:42;;;;;;;4.60;1.80;;;;;;;23.25;38.47;101157.86;107651;1259;76756;-79
2024/04/08 09:53:10;;;;;;;5.00;1.80;;;;;;;23.39;38.18;101157.02;107709;1259;73866;-80
2024/04/08 09:55:40;;;;;;;5.70;2.00;;;;;;;23.74;36.52;101152.78;107740;1260;71475;-78
2024/04/08 09:58:10;;;;;;;5.30;1.80;;;;;;;23.99;36.27;101147.98;107634;1259;62165;-77
2024/04/08 10:00:37;;;;;;;6.70;1.80;;;;;;;24.04;35.75;101143.42;107696;1260;62015;-79
2024/04/08 10:03:08;;;;;;;4.70;1.80;;;;;;;24.09;35.05;101147.80;107538;1260;75455;-80
2024/04/08 10:05:36;;;;;;;6.30;1.70;;;;;;;24.06;34.86;101140.58;107617;1262;72666;-79
2024/04/08 10:08:03;;;;;;;4.50;1.90;;;;;;;23.65;35.52;101136.31;107671;1260;72550;-79
2024/04/08 10:10:33;;;;;;;4.20;1.90;;;;;;;23.52;36.27;101137.52;107745;1259;61957;-79
2024/04/08 10:13:00;;;;;;;5.10;1.80;;;;;;;24.11;35.51;101129.23;107566;1264;61993;-79
2024/04/08 10:15:31;;;;;;;5.30;1.80;;;;;;;24.37;35.14;101128.39;107653;1259;75278;-77
2024/04/08 10:17:57;;;;;;;4.90;1.80;;;;;;;24.50;34.66;101129.02;107612;1259;71561;-78
2024/04/08 10:20:25;;;;;;;6.60;2.00;;;;;;;24.56;34.34;101128.20;107614;1259;72525;-80
2024/04/08 10:22:52;;;;;;;6.80;2.30;;;;;;;24.54;33.91;101124.48;107723;1259;61996;-78
2024/04/08 10:25:38;;;;;;;4.30;1.70;;;;;;;24.51;33.17;101130.61;107768;1259;61218;-79
2024/04/08 10:28:11;;;;;;;5.00;1.80;;;;;;;24.43;33.16;101118.68;107706;1260;74680;-79
2024/04/08 10:30:39;;;;;;;4.00;1.50;;;;;;;24.45;33.73;101118.21;107817;1259;72663;-80
2024/04/08 10:33:06;;;;;;;3.50;1.40;;;;;;;24.59;33.82;101119.55;107711;1259;72734;-79
2024/04/08 10:35:33;;;;;;;3.80;1.50;;;;;;;24.72;33.24;101116.02;107720;1259;62123;-79
2024/04/08 10:38:00;;;;;;;4.10;1.50;;;;;;;24.84;33.41;101114.02;107669;1260;61898;-79
2024/04/08 10:40:27;;;;;;;5.10;1.90;;;;;;;24.88;32.15;101108.42;107765;1259;75350;-79
2024/04/08 10:42:56;;;;;;;5.40;1.60;;;;;;;24.80;32.76;101105.83;107656;1260;72903;-79
2024/04/08 10:45:23;;;;;;;4.10;1.60;;;;;;;24.80;32.74;101103.49;107676;1260;72440;-79
2024/04/08 10:47:59;;;;;;;6.20;1.80;;;;;;;24.81;32.32;101099.07;107716;1260;62041;-79
2024/04/08 10:50:34;;;;;;;4.90;1.90;;;;;;;24.84;32.98;101095.96;107758;1259;61934;-79
2024/04/08 10:53:01;;;;;;;5.10;1.60;;;;;;;24.95;32.64;101095.16;107789;1259;75413;-78
2024/04/08 10:55:28;;;;;;;4.60;1.80;;;;;;;25.02;32.59;101089.83;107692;1259;73585;-79
2024/04/08 10:57:55;;;;;;;6.60;2.00;;;;;;;25.12;32.20;101090.17;107760;1259;71486;-78
2024/04/08 11:00:22;;;;;;;4.80;1.80;;;;;;;25.12;31.91;101090.79;107786;1260;61813;-78
2024/04/08 11:02:50;;;;;;;6.40;1.80;;;;;;;25.11;31.66;101081.98;107751;1259;61970;-78
2024/04/08 11:05:17;;;;;;;4.00;1.50;;;;;;;25.11;32.00;101080.91;107751;1259;74188;-78
2024/04/08 11:07:44;;;;;;;4.20;1.50;;;;;;;25.18;32.05;101081.31;107669;1260;71679;-78
2024/04/08 11:10:13;;;;;;;5.10;2.00;;;;;;;25.22;31.58;101080.48;107550;1260;72598;-78
2024/04/08 11:12:39;;;;;;;6.30;1.90;;;;;;;25.22;31.74;101077.60;107725;1260;60653;-79
2024/04/08 11:15:09;;;;;;;4.40;1.80;;;;;;;25.28;31.38;101071.91;107535;1259;63587;-80
2024/04/08 11:17:36;;;;;;;4.50;1.70;;;;;;;25.36;31.43;101072.23;107573;1264;75331;-79
2024/04/08 11:20:06;;;;;;;4.30;1.60;;;;;;;25.38;30.78;101067.84;107643;1264;72601;-80